Time;durP1;ratioP1;P1;durP2;ratioP2;P2;SDS_P1;SDS_P2;PMS_P1;PMS_P2;Temp;Humidity;BMP_temperature;BMP_pressure;BME280_temperature;BME280_humidity;BME280_pressure;Samples;Min_cycle;Max_cycle;Signal;HPM_P1;HPM_P2
2023/05/27 00:02:02;;;;;;;13.40;10.48;;;19.50;99.90;;;;;;5094522;28;20512;-61
2023/05/27 00:04:28;;;;;;;12.93;10.68;;;19.50;99.90;;;;;;5094534;28;20024;-62
2023/05/27 00:06:53;;;;;;;13.68;10.45;;;19.50;99.90;;;;;;5094606;28;20414;-62
2023/05/27 00:09:20;;;;;;;15.98;10.48;;;19.50;99.90;;;;;;5093894;28;20502;-62
2023/05/27 00:11:46;;;;;;;12.63;10.20;;;19.50;99.90;;;;;;5094785;28;20101;-62
2023/05/27 00:14:11;;;;;;;13.80;10.93;;;19.30;99.90;;;;;;5094131;28;20498;-62
2023/05/27 00:16:37;;;;;;;14.98;10.60;;;19.30;99.90;;;;;;5094591;28;20032;-62
2023/05/27 00:19:03;;;;;;;12.82;10.32;;;19.30;99.90;;;;;;5094275;28;20486;-62
2023/05/27 00:21:29;;;;;;;14.52;10.95;;;19.30;99.90;;;;;;5094264;28;20039;-62
2023/05/27 00:23:57;;;;;;;14.32;10.52;;;19.20;99.90;;;;;;5093795;28;20036;-62
2023/05/27 00:26:23;;;;;;;13.02;10.10;;;19.20;99.90;;;;;;5093848;28;20055;-62
2023/05/27 00:28:49;;;;;;;13.02;10.50;;;19.10;99.90;;;;;;5094089;28;20436;-62
2023/05/27 00:31:15;;;;;;;13.93;10.60;;;19.10;99.90;;;;;;5093947;28;20081;-62
2023/05/27 00:33:43;;;;;;;12.73;10.82;;;19.10;99.90;;;;;;5093970;28;20032;-62
2023/05/27 00:36:09;;;;;;;13.48;11.30;;;19.00;99.90;;;;;;5094106;28;20080;-62
2023/05/27 00:38:35;;;;;;;12.68;10.65;;;18.90;99.90;;;;;;5093771;28;20028;-61
2023/05/27 00:41:02;;;;;;;13.02;10.85;;;18.90;99.90;;;;;;5094179;28;20085;-62
2023/05/27 00:43:30;;;;;;;13.82;11.10;;;18.90;99.90;;;;;;5094352;28;20032;-62
2023/05/27 00:45:56;;;;;;;12.90;11.40;;;18.80;99.90;;;;;;5093757;28;20055;-62
2023/05/27 00:48:22;;;;;;;14.40;11.10;;;18.80;99.90;;;;;;5093673;28;20068;-62
2023/05/27 00:50:48;;;;;;;17.27;11.02;;;18.80;99.90;;;;;;5093698;28;20020;-62
2023/05/27 00:53:14;;;;;;;14.13;11.60;;;18.70;99.90;;;;;;5093528;28;20047;-62
2023/05/27 00:55:40;;;;;;;14.20;11.55;;;18.70;99.90;;;;;;5093643;28;20099;-62
2023/05/27 00:58:09;;;;;;;14.43;11.68;;;18.70;99.90;;;;;;5093616;28;20440;-62
2023/05/27 01:00:37;;;;;;;13.90;11.27;;;18.60;99.90;;;;;;5093734;28;20466;-62
2023/05/27 01:03:03;;;;;;;14.93;12.02;;;18.60;99.90;;;;;;5093414;28;20020;-62
2023/05/27 01:05:29;;;;;;;13.73;12.02;;;18.60;99.90;;;;;;5093331;28;20024;-62
2023/05/27 01:08:28;;;;;;;15.15;12.75;;;18.50;99.90;;;;;;5093531;28;20036;-62
2023/05/27 01:10:55;;;;;;;14.27;12.13;;;18.60;99.90;;;;;;5093704;28;20531;-62
2023/05/27 01:13:30;;;;;;;14.43;12.02;;;18.50;99.90;;;;;;5093062;28;20036;-62
2023/05/27 01:15:59;;;;;;;16.13;12.52;;;18.40;99.90;;;;;;5093344;28;20074;-62
2023/05/27 01:18:29;;;;;;;16.80;12.95;;;18.40;99.90;;;;;;5092980;28;20027;-62
2023/05/27 01:21:02;;;;;;;16.67;12.55;;;18.40;99.90;;;;;;5092728;28;20040;-62
2023/05/27 01:23:28;;;;;;;17.40;12.77;;;18.40;99.90;;;;;;5093265;28;20040;-62
2023/05/27 01:25:54;;;;;;;18.10;13.18;;;18.30;99.90;;;;;;5092974;28;20027;-62
2023/05/27 01:28:20;;;;;;;15.38;12.82;;;18.30;99.90;;;;;;5093101;28;20028;-62
2023/05/27 01:30:46;;;;;;;15.88;13.13;;;18.30;99.90;;;;;;5092951;28;20089;-62
2023/05/27 01:33:21;;;;;;;19.73;13.70;;;18.20;99.90;;;;;;5092740;28;20051;-62
2023/05/27 01:35:52;;;;;;;16.00;13.35;;;18.20;99.90;;;;;;5092451;28;20079;-62
2023/05/27 01:38:21;;;;;;;16.42;13.05;;;18.20;99.90;;;;;;5092029;28;20554;-62
2023/05/27 01:40:49;;;;;;;17.92;13.15;;;18.20;99.90;;;;;;5093066;28;20085;-62
2023/05/27 01:43:17;;;;;;;14.80;11.93;;;18.20;99.90;;;;;;5092955;28;20036;-62
2023/05/27 01:45:43;;;;;;;16.52;12.60;;;18.10;99.90;;;;;;5092630;28;20027;-62
2023/05/27 01:48:09;;;;;;;15.48;12.63;;;18.10;99.90;;;;;;5092381;28;20044;-62
2023/05/27 01:50:35;;;;;;;17.67;12.40;;;18.10;99.90;;;;;;5092467;28;20024;-62
2023/05/27 01:53:03;;;;;;;15.65;12.68;;;18.10;99.90;;;;;;5092326;28;20032;-62
2023/05/27 01:55:30;;;;;;;17.13;13.13;;;18.10;99.90;;;;;;5092338;28;20040;-62
2023/05/27 01:57:56;;;;;;;15.38;12.40;;;18.00;99.90;;;;;;5092401;28;20024;-62
2023/05/27 02:00:22;;;;;;;15.30;12.02;;;17.90;99.90;;;;;;5092638;28;20506;-62
2023/05/27 02:02:48;;;;;;;13.90;12.05;;;17.90;99.90;;;;;;5092170;28;20505;-62
2023/05/27 02:05:14;;;;;;;14.48;12.07;;;17.90;99.90;;;;;;5091990;28;20028;-62
2023/05/27 02:07:40;;;;;;;15.50;12.45;;;17.90;99.90;;;;;;5092060;28;20541;-62
2023/05/27 02:10:06;;;;;;;15.75;11.70;;;17.90;99.90;;;;;;5092295;28;20040;-62
2023/05/27 02:12:32;;;;;;;16.88;12.10;;;17.90;99.90;;;;;;5092391;28;20035;-62
2023/05/27 02:14:58;;;;;;;13.32;11.85;;;17.90;99.90;;;;;;5091890;28;20040;-62
2023/05/27 02:17:24;;;;;;;14.32;12.02;;;17.80;99.90;;;;;;5092120;28;20016;-62
2023/05/27 02:19:50;;;;;;;14.50;11.27;;;17.80;99.90;;;;;;5092123;28;20428;-62
2023/05/27 02:22:17;;;;;;;15.27;11.85;;;17.80;99.90;;;;;;5091968;28;20515;-62
2023/05/27 02:24:43;;;;;;;12.68;11.38;;;17.70;99.90;;;;;;5091822;28;20486;-62
2023/05/27 02:27:08;;;;;;;14.73;11.50;;;17.70;99.90;;;;;;5092209;28;20051;-62
2023/05/27 02:29:34;;;;;;;13.30;11.88;;;17.60;99.90;;;;;;5091932;28;20012;-61
2023/05/27 02:32:00;;;;;;;14.63;11.32;;;17.60;99.90;;;;;;5091562;28;20028;-62
2023/05/27 02:34:25;;;;;;;12.98;11.68;;;17.60;99.90;;;;;;5091302;28;20031;-62
2023/05/27 02:36:51;;;;;;;13.40;11.80;;;17.50;99.90;;;;;;5091542;28;20062;-62
2023/05/27 02:39:17;;;;;;;13.40;12.00;;;17.50;99.90;;;;;;5091591;28;20027;-62
2023/05/27 02:41:43;;;;;;;14.32;12.07;;;17.50;99.90;;;;;;5092086;28;20099;-62
2023/05/27 02:44:08;;;;;;;16.92;11.35;;;17.50;99.90;;;;;;5091600;28;20054;-62
2023/05/27 02:46:34;;;;;;;14.52;11.35;;;17.40;99.90;;;;;;5091613;28;20525;-62
2023/05/27 02:49:00;;;;;;;15.20;11.98;;;17.50;99.90;;;;;;5091168;28;20055;-62
2023/05/27 02:51:27;;;;;;;17.35;11.70;;;17.40;99.90;;;;;;5091607;28;20473;-62
2023/05/27 02:53:53;;;;;;;14.63;11.80;;;17.40;99.90;;;;;;5091551;28;20028;-62
2023/05/27 02:56:19;;;;;;;13.45;11.40;;;17.40;99.90;;;;;;5091422;28;20036;-61
2023/05/27 02:58:45;;;;;;;14.52;11.80;;;17.30;99.90;;;;;;5091557;28;20043;-62
2023/05/27 03:01:10;;;;;;;16.85;11.88;;;17.30;99.90;;;;;;5091680;28;20046;-62
2023/05/27 03:03:36;;;;;;;16.63;13.10;;;17.30;99.90;;;;;;5091057;28;20470;-62
2023/05/27 03:06:03;;;;;;;13.82;11.60;;;17.30;99.90;;;;;;5091255;28;20084;-62
2023/05/27 03:08:29;;;;;;;15.90;12.50;;;17.20;99.90;;;;;;5091309;28;20020;-62
2023/05/27 03:10:55;;;;;;;13.82;12.40;;;17.20;99.90;;;;;;5091354;28;20028;-62
2023/05/27 03:13:21;;;;;;;14.50;12.32;;;17.20;99.90;;;;;;5091673;28;20032;-62
2023/05/27 03:15:46;;;;;;;15.35;12.50;;;17.10;99.90;;;;;;5091281;28;20028;-62
2023/05/27 03:18:12;;;;;;;15.48;13.15;;;17.10;99.90;;;;;;5090851;28;20487;-62
2023/05/27 03:20:38;;;;;;;13.48;11.70;;;17.10;99.90;;;;;;5091660;28;20372;-62
2023/05/27 03:23:03;;;;;;;16.83;13.30;;;17.10;99.90;;;;;;5091031;28;20028;-61
2023/05/27 03:25:29;;;;;;;16.17;13.65;;;17.10;99.90;;;;;;5091142;28;20035;-62
2023/05/27 03:27:55;;;;;;;14.73;12.95;;;17.00;99.90;;;;;;5091197;28;20024;-61
2023/05/27 03:30:21;;;;;;;15.85;13.30;;;17.00;99.90;;;;;;5090934;28;20063;-62
2023/05/27 03:32:46;;;;;;;18.45;13.02;;;17.00;99.90;;;;;;5090712;28;20397;-62
2023/05/27 03:35:12;;;;;;;14.75;13.10;;;17.00;99.90;;;;;;5091488;28;20074;-61
2023/05/27 03:37:38;;;;;;;17.92;13.63;;;16.90;99.90;;;;;;5091217;28;20032;-62
2023/05/27 03:40:05;;;;;;;16.27;13.07;;;16.90;99.90;;;;;;5091074;28;20028;-62
2023/05/27 03:42:31;;;;;;;19.10;12.98;;;16.90;99.90;;;;;;5090889;28;20028;-61
2023/05/27 03:44:57;;;;;;;17.80;13.30;;;16.80;99.90;;;;;;5091220;28;20027;-62
2023/05/27 03:47:23;;;;;;;15.57;13.43;;;16.80;99.90;;;;;;5090713;28;20028;-62
2023/05/27 03:49:49;;;;;;;14.88;13.25;;;16.80;99.90;;;;;;5090857;28;20036;-62
2023/05/27 03:52:15;;;;;;;17.30;14.55;;;16.80;99.90;;;;;;5090924;28;20023;-62
2023/05/27 03:54:41;;;;;;;17.38;13.52;;;16.80;99.90;;;;;;5090776;28;20044;-62
2023/05/27 03:57:07;;;;;;;18.58;13.63;;;16.80;99.90;;;;;;5090905;28;20052;-61
2023/05/27 03:59:33;;;;;;;16.30;13.30;;;16.70;99.90;;;;;;5090751;28;20055;-62
2023/05/27 04:01:59;;;;;;;16.25;13.45;;;16.60;99.90;;;;;;5093208;28;20024;-61
2023/05/27 04:04:24;;;;;;;15.98;13.50;;;16.60;99.90;;;;;;5094890;28;20440;-62
2023/05/27 04:06:50;;;;;;;15.40;13.50;;;16.60;99.90;;;;;;5094582;28;20452;-62
2023/05/27 04:09:16;;;;;;;15.07;13.48;;;16.50;99.90;;;;;;5094598;28;20051;-62
2023/05/27 04:11:42;;;;;;;17.85;13.65;;;16.50;99.90;;;;;;5094410;28;20020;-62
2023/05/27 04:14:08;;;;;;;15.63;13.65;;;16.50;99.90;;;;;;5094116;28;20524;-62
2023/05/27 04:16:35;;;;;;;16.70;14.32;;;16.50;99.90;;;;;;5094431;28;20107;-62
2023/05/27 04:19:01;;;;;;;16.20;14.13;;;16.40;99.90;;;;;;5094209;28;20485;-62
2023/05/27 04:21:27;;;;;;;15.15;13.55;;;16.40;99.90;;;;;;5094248;28;20028;-61
2023/05/27 04:23:53;;;;;;;16.17;14.13;;;16.40;99.90;;;;;;5094712;28;20035;-61
2023/05/27 04:26:19;;;;;;;18.35;13.98;;;16.40;99.90;;;;;;5094205;28;20024;-61
2023/05/27 04:28:45;;;;;;;17.23;14.15;;;16.40;99.90;;;;;;5094168;28;20047;-61
2023/05/27 04:31:12;;;;;;;16.42;14.20;;;16.40;99.90;;;;;;5093663;28;20035;-61
2023/05/27 04:33:42;;;;;;;16.77;13.88;;;16.30;99.90;;;;;;5093923;28;20244;-61
2023/05/27 04:36:08;;;;;;;16.45;13.55;;;16.30;99.90;;;;;;5094290;28;20089;-62
2023/05/27 04:38:34;;;;;;;16.42;14.48;;;16.30;99.90;;;;;;5094122;28;20028;-62
2023/05/27 04:41:00;;;;;;;17.30;14.43;;;16.30;99.90;;;;;;5093839;28;20035;-62
2023/05/27 04:43:26;;;;;;;16.92;13.77;;;16.30;99.90;;;;;;5094073;28;20457;-61
2023/05/27 04:45:53;;;;;;;19.80;14.75;;;16.30;99.90;;;;;;5093476;28;20371;-61
2023/05/27 04:48:19;;;;;;;18.98;14.95;;;16.30;99.90;;;;;;5093685;28;20021;-61
2023/05/27 04:50:45;;;;;;;17.55;14.95;;;16.30;99.90;;;;;;5093861;28;20028;-62
2023/05/27 04:53:11;;;;;;;15.88;14.20;;;16.30;99.90;;;;;;5093515;28;20559;-61
2023/05/27 04:55:38;;;;;;;16.73;14.75;;;16.30;99.90;;;;;;5093967;28;20538;-62
2023/05/27 04:58:05;;;;;;;16.80;15.02;;;16.30;99.90;;;;;;5093640;28;20032;-61
2023/05/27 05:00:49;;;;;;;16.27;14.52;;;16.30;99.90;;;;;;5093489;28;20040;-62
2023/05/27 05:03:22;;;;;;;17.35;14.35;;;16.30;99.90;;;;;;5093517;28;20375;-61
2023/05/27 05:05:52;;;;;;;18.63;14.40;;;16.30;99.90;;;;;;5093384;28;20059;-62
2023/05/27 05:08:21;;;;;;;17.65;15.55;;;16.30;99.90;;;;;;5093309;28;20054;-61
2023/05/27 05:10:48;;;;;;;17.83;15.40;;;16.40;99.90;;;;;;5093282;28;20084;-61
2023/05/27 05:13:14;;;;;;;21.77;15.93;;;16.30;99.90;;;;;;5091765;28;20390;-61
2023/05/27 05:15:40;;;;;;;20.15;16.20;;;16.40;99.90;;;;;;5093742;28;20399;-61
2023/05/27 05:18:06;;;;;;;17.95;15.45;;;16.40;99.90;;;;;;5093350;28;20039;-61
2023/05/27 05:20:32;;;;;;;19.45;15.93;;;16.40;99.90;;;;;;5093170;28;20059;-61
2023/05/27 05:22:58;;;;;;;18.13;14.90;;;16.40;99.90;;;;;;5093013;28;20039;-62
2023/05/27 05:25:24;;;;;;;19.08;15.98;;;16.50;99.90;;;;;;5093025;28;20047;-61
2023/05/27 05:27:51;;;;;;;20.80;16.45;;;16.50;99.90;;;;;;5092612;28;20061;-62
2023/05/27 05:30:17;;;;;;;21.60;17.35;;;16.50;99.90;;;;;;5093278;28;20028;-61
2023/05/27 05:32:43;;;;;;;18.20;15.90;;;16.50;99.90;;;;;;5092399;28;20111;-62
2023/05/27 05:35:08;;;;;;;20.73;17.35;;;16.60;99.90;;;;;;5092576;28;20047;-61
2023/05/27 05:37:34;;;;;;;23.90;16.85;;;16.60;99.90;;;;;;5092809;28;20452;-61
2023/05/27 05:40:00;;;;;;;23.98;16.63;;;16.70;99.90;;;;;;5093293;28;20024;-61
2023/05/27 05:42:26;;;;;;;21.35;16.65;;;16.80;99.90;;;;;;5092260;28;20047;-62
2023/05/27 05:44:52;;;;;;;22.98;16.67;;;16.70;99.90;;;;;;5092679;28;20028;-61
2023/05/27 05:47:18;;;;;;;23.15;17.40;;;16.80;99.90;;;;;;5092549;28;20035;-61
2023/05/27 05:49:45;;;;;;;22.73;17.33;;;16.80;99.90;;;;;;5092857;28;20052;-61
2023/05/27 05:52:11;;;;;;;23.92;17.63;;;16.90;99.90;;;;;;5092559;28;20024;-62
2023/05/27 05:54:36;;;;;;;23.42;18.73;;;16.90;99.90;;;;;;5092164;28;20047;-62
2023/05/27 05:57:02;;;;;;;19.40;16.70;;;16.90;99.90;;;;;;5092013;28;20020;-62
2023/05/27 05:59:28;;;;;;;24.75;17.55;;;17.00;99.90;;;;;;5092719;28;20093;-62
2023/05/27 06:01:54;;;;;;;22.92;17.50;;;17.10;99.90;;;;;;5092462;28;20023;-61
2023/05/27 06:04:20;;;;;;;22.65;16.55;;;17.10;99.90;;;;;;5092167;28;20088;-61
2023/05/27 06:06:45;;;;;;;21.65;16.65;;;17.20;99.90;;;;;;5092697;28;20024;-62
2023/05/27 06:09:11;;;;;;;21.77;17.00;;;17.20;99.90;;;;;;5092057;28;20043;-62
2023/05/27 06:11:37;;;;;;;19.95;15.23;;;17.30;99.90;;;;;;5091815;28;20020;-61
2023/05/27 06:14:03;;;;;;;18.85;14.63;;;17.40;99.90;;;;;;5091982;28;20127;-62
2023/05/27 06:16:28;;;;;;;19.30;14.85;;;17.40;99.90;;;;;;5092482;28;20398;-61
2023/05/27 06:18:54;;;;;;;18.25;14.45;;;17.50;99.90;;;;;;5092199;28;20028;-61
2023/05/27 06:21:20;;;;;;;14.88;13.23;;;17.50;99.90;;;;;;5092103;28;20024;-62
2023/05/27 06:23:46;;;;;;;15.82;13.25;;;17.60;99.90;;;;;;5091843;28;20473;-62
2023/05/27 06:26:12;;;;;;;19.85;13.40;;;17.60;99.90;;;;;;5091499;28;20052;-62
2023/05/27 06:28:38;;;;;;;19.75;13.32;;;17.70;99.90;;;;;;5091910;28;20028;-62
2023/05/27 06:31:03;;;;;;;16.02;12.98;;;17.70;99.90;;;;;;5091652;28;20027;-61
2023/05/27 06:33:29;;;;;;;16.02;13.43;;;17.80;99.90;;;;;;5091743;28;20032;-62
2023/05/27 06:35:55;;;;;;;15.82;13.50;;;17.80;99.90;;;;;;5091913;28;20059;-61
2023/05/27 06:38:20;;;;;;;19.55;13.93;;;17.90;99.90;;;;;;5091569;28;20111;-61
2023/05/27 06:40:46;;;;;;;17.83;15.25;;;18.00;99.90;;;;;;5091395;28;20032;-62
2023/05/27 06:43:12;;;;;;;20.73;14.77;;;18.00;99.90;;;;;;5091490;28;20028;-62
2023/05/27 06:45:38;;;;;;;16.67;14.32;;;18.00;99.90;;;;;;5092016;28;20032;-62
2023/05/27 06:48:04;;;;;;;17.35;14.80;;;18.10;99.90;;;;;;5091661;28;20039;-62
2023/05/27 06:50:29;;;;;;;15.95;14.10;;;18.10;99.90;;;;;;5091489;28;20032;-62
2023/05/27 06:52:55;;;;;;;18.42;15.32;;;18.20;99.90;;;;;;5091708;28;20497;-62
2023/05/27 06:55:20;;;;;;;16.50;14.57;;;18.30;99.90;;;;;;5091109;28;20406;-62
2023/05/27 06:57:46;;;;;;;15.48;13.73;;;18.30;99.90;;;;;;5091468;28;20398;-62
2023/05/27 07:00:12;;;;;;;16.25;14.57;;;18.40;99.90;;;;;;5091328;28;20024;-62
2023/05/27 07:02:38;;;;;;;16.88;13.88;;;18.50;99.90;;;;;;5091351;28;20048;-61
2023/05/27 07:05:04;;;;;;;14.88;13.25;;;18.60;99.90;;;;;;5091338;28;20023;-61
2023/05/27 07:07:30;;;;;;;15.43;12.90;;;18.60;99.90;;;;;;5091575;28;20024;-62
2023/05/27 07:09:55;;;;;;;19.48;12.75;;;18.70;99.90;;;;;;5091052;28;20069;-62
2023/05/27 07:12:23;;;;;;;14.85;12.77;;;18.70;99.90;;;;;;5091230;28;20444;-61
2023/05/27 07:14:49;;;;;;;15.52;12.73;;;18.90;99.90;;;;;;5091058;28;20040;-62
2023/05/27 07:17:14;;;;;;;13.68;11.90;;;18.90;99.90;;;;;;5091688;28;20479;-62
2023/05/27 07:19:40;;;;;;;13.88;10.50;;;19.00;99.90;;;;;;5091320;28;20554;-62
2023/05/27 07:22:06;;;;;;;12.18;10.88;;;19.10;99.90;;;;;;5091058;28;20432;-62
2023/05/27 07:24:32;;;;;;;14.68;10.68;;;19.20;99.90;;;;;;5090835;28;20028;-62
2023/05/27 07:26:57;;;;;;;12.52;9.57;;;19.20;99.90;;;;;;5091050;28;20032;-62
2023/05/27 07:29:23;;;;;;;11.18;10.00;;;19.30;99.90;;;;;;5091545;28;20031;-62
2023/05/27 07:31:49;;;;;;;10.82;9.13;;;19.40;99.90;;;;;;5090945;28;20099;-62
2023/05/27 07:34:14;;;;;;;11.98;9.32;;;19.40;99.90;;;;;;5090939;28;20036;-62
2023/05/27 07:36:40;;;;;;;10.48;8.95;;;19.50;99.90;;;;;;5093293;28;20093;-62
2023/05/27 07:39:06;;;;;;;12.95;8.98;;;19.60;99.90;;;;;;5094787;28;20085;-62
2023/05/27 07:41:32;;;;;;;10.27;8.68;;;19.60;99.90;;;;;;5094976;28;20082;-62
2023/05/27 07:43:58;;;;;;;12.82;8.90;;;19.80;99.90;;;;;;5095056;28;20067;-62
2023/05/27 07:46:24;;;;;;;9.95;8.73;;;19.80;99.90;;;;;;5094864;28;20066;-62
2023/05/27 07:48:50;;;;;;;12.15;9.50;;;19.90;99.90;;;;;;5094839;28;20016;-61
2023/05/27 07:51:16;;;;;;;11.45;8.90;;;19.90;99.90;;;;;;5095263;28;20115;-62
2023/05/27 07:53:42;;;;;;;13.20;8.27;;;20.00;99.90;;;;;;5094318;28;20035;-62
2023/05/27 07:56:07;;;;;;;10.57;9.13;;;20.00;99.90;;;;;;5094810;28;20035;-62
2023/05/27 07:58:33;;;;;;;10.55;8.98;;;20.10;99.90;;;;;;5094698;28;20020;-62
2023/05/27 08:00:59;;;;;;;13.90;11.85;;;20.20;99.90;;;;;;5094620;28;20024;-62
2023/05/27 08:03:25;;;;;;;12.20;10.18;;;20.20;99.90;;;;;;5094732;28;20112;-62
2023/05/27 08:05:50;;;;;;;16.20;12.48;;;20.30;99.90;;;;;;5094754;28;20047;-61
2023/05/27 08:08:16;;;;;;;15.48;11.70;;;20.30;99.90;;;;;;5094273;28;20032;-62
2023/05/27 08:10:44;;;;;;;14.40;11.25;;;20.30;99.90;;;;;;5094448;28;20078;-62
2023/05/27 08:13:09;;;;;;;13.30;11.32;;;20.40;99.90;;;;;;5094288;28;20082;-62
2023/05/27 08:15:35;;;;;;;13.52;12.13;;;20.50;99.90;;;;;;5094479;28;20081;-62
2023/05/27 08:18:01;;;;;;;13.80;9.30;;;20.60;99.90;;;;;;5093544;28;20028;-62
2023/05/27 08:20:27;;;;;;;11.45;8.90;;;20.70;99.90;;;;;;5094226;28;20020;-62
2023/05/27 08:22:53;;;;;;;13.48;9.70;;;20.70;99.90;;;;;;5093850;28;20154;-62
2023/05/27 08:25:19;;;;;;;15.68;12.20;;;20.90;99.90;;;;;;5094050;28;20060;-62
2023/05/27 08:27:52;;;;;;;14.98;13.13;;;20.90;99.90;;;;;;5094433;28;20039;-63
2023/05/27 08:30:18;;;;;;;15.82;13.65;;;20.90;99.90;;;;;;5094361;28;20372;-62
2023/05/27 08:32:44;;;;;;;17.45;14.75;;;20.90;99.90;;;;;;5094034;28;20542;-62
2023/05/27 08:35:10;;;;;;;15.75;13.00;;;21.00;99.90;;;;;;5093694;28;20177;-62
2023/05/27 08:37:37;;;;;;;14.25;11.90;;;21.00;99.90;;;;;;5093992;28;20406;-62
2023/05/27 08:40:06;;;;;;;13.73;12.00;;;21.00;99.90;;;;;;5092832;28;20444;-62
2023/05/27 08:42:33;;;;;;;13.30;11.13;;;21.00;99.90;;;;;;5093818;28;20024;-61
2023/05/27 08:44:59;;;;;;;15.35;10.88;;;21.10;99.90;;;;;;5093723;28;20478;-62
2023/05/27 08:47:30;;;;;;;11.57;10.10;;;21.10;99.90;;;;;;5093678;28;20039;-62
2023/05/27 08:49:58;;;;;;;11.85;10.35;;;21.10;99.90;;;;;;5093855;28;20054;-62
2023/05/27 08:52:26;;;;;;;13.00;11.10;;;21.30;99.90;;;;;;5093738;28;20434;-62
2023/05/27 08:54:53;;;;;;;14.80;12.15;;;21.40;99.90;;;;;;5093740;28;20036;-62
2023/05/27 08:57:21;;;;;;;16.05;11.93;;;21.60;99.90;;;;;;5093629;28;20035;-62
2023/05/27 08:59:47;;;;;;;12.30;10.88;;;21.60;99.90;;;;;;5093748;28;20028;-62
2023/05/27 09:02:14;;;;;;;16.60;11.75;;;21.60;99.90;;;;;;5092014;28;20446;-62
2023/05/27 09:04:41;;;;;;;13.60;10.80;;;21.70;99.90;;;;;;5093542;28;20036;-62
2023/05/27 09:07:08;;;;;;;12.63;10.77;;;21.90;99.90;;;;;;5093429;28;20097;-62
2023/05/27 09:09:34;;;;;;;13.43;10.23;;;21.80;99.90;;;;;;5093358;28;20024;-62
2023/05/27 09:12:01;;;;;;;11.18;9.55;;;21.80;99.90;;;;;;5093861;28;20034;-62
2023/05/27 09:14:31;;;;;;;11.70;9.10;;;21.90;99.90;;;;;;5093152;28;20063;-62
2023/05/27 09:16:57;;;;;;;12.70;8.85;;;22.10;99.90;;;;;;5093060;28;20020;-62
2023/05/27 09:19:22;;;;;;;12.88;9.70;;;22.10;99.90;;;;;;5092884;28;20085;-62
2023/05/27 09:21:52;;;;;;;12.48;9.20;;;22.20;99.90;;;;;;5093077;28;20073;-62
2023/05/27 09:24:18;;;;;;;11.32;9.60;;;22.30;99.90;;;;;;5093033;28;20423;-62
2023/05/27 09:26:44;;;;;;;12.52;10.50;;;22.40;99.90;;;;;;5093429;28;20042;-62
2023/05/27 09:29:10;;;;;;;11.30;10.05;;;22.40;99.90;;;;;;5093125;28;20032;-62
2023/05/27 09:31:42;;;;;;;13.15;10.68;;;22.40;99.90;;;;;;5092804;28;20062;-62
2023/05/27 09:34:15;;;;;;;14.93;11.52;;;22.40;99.90;;;;;;5092507;28;20453;-62
2023/05/27 09:36:51;;;;;;;14.30;10.50;;;22.60;99.90;;;;;;5093181;28;20051;-62
2023/05/27 09:39:22;;;;;;;14.68;11.27;;;22.70;99.90;;;;;;5092781;28;20067;-62
2023/05/27 09:41:53;;;;;;;11.75;10.18;;;22.80;99.90;;;;;;5092689;28;20020;-62
2023/05/27 09:44:19;;;;;;;11.90;10.10;;;22.80;99.90;;;;;;5092617;28;20085;-62
2023/05/27 09:46:45;;;;;;;12.15;9.20;;;22.90;99.90;;;;;;5092585;28;20020;-62
2023/05/27 09:49:14;;;;;;;12.27;8.38;;;23.00;99.90;;;;;;5092584;28;20040;-62
2023/05/27 09:51:41;;;;;;;10.05;8.27;;;23.00;99.90;;;;;;5092675;28;20031;-62
2023/05/27 09:54:09;;;;;;;11.50;8.05;;;23.10;99.90;;;;;;5092290;28;20036;-63
2023/05/27 09:56:35;;;;;;;10.32;7.97;;;23.20;99.90;;;;;;5092885;28;20035;-62
2023/05/27 09:59:01;;;;;;;8.98;6.28;;;23.40;99.90;;;;;;5091727;28;20434;-62
2023/05/27 10:01:28;;;;;;;9.32;6.70;;;23.40;99.90;;;;;;5092287;28;20022;-62
2023/05/27 10:03:56;;;;;;;10.82;7.30;;;23.60;99.90;;;;;;5091997;28;20024;-62
2023/05/27 10:06:24;;;;;;;7.53;6.72;;;23.80;99.90;;;;;;5092640;28;20028;-62
2023/05/27 10:08:52;;;;;;;12.35;7.68;;;23.90;99.90;;;;;;5092326;28;20063;-62
2023/05/27 10:11:18;;;;;;;11.60;7.47;;;23.90;99.90;;;;;;5092278;28;20024;-62
2023/05/27 10:13:45;;;;;;;10.82;7.15;;;23.80;99.90;;;;;;5092391;28;20125;-62
2023/05/27 10:16:21;;;;;;;8.90;5.88;;;24.00;99.90;;;;;;5091919;28;20020;-62
2023/05/27 10:18:52;;;;;;;9.00;6.15;;;24.00;99.90;;;;;;5091714;28;20486;-62
2023/05/27 10:21:22;;;;;;;7.32;5.35;;;24.10;99.90;;;;;;5092136;28;20036;-62
2023/05/27 10:23:58;;;;;;;6.55;4.75;;;24.20;99.90;;;;;;5090996;28;20453;-62
2023/05/27 10:26:44;;;;;;;8.18;4.50;;;24.20;99.90;;;;;;5092062;28;20491;-62
2023/05/27 10:29:15;;;;;;;6.38;4.10;;;24.30;99.90;;;;;;5091723;28;20043;-63
2023/05/27 10:31:49;;;;;;;6.65;3.90;;;24.20;99.90;;;;;;5091373;28;20028;-62
2023/05/27 10:34:15;;;;;;;10.23;4.20;;;24.20;99.90;;;;;;5091656;28;20123;-62
2023/05/27 10:36:40;;;;;;;6.63;4.22;;;24.30;99.90;;;;;;5092001;28;20123;-63
2023/05/27 10:39:13;;;;;;;14.23;6.38;;;24.40;99.90;;;;;;5090257;28;20039;-62
2023/05/27 10:42:00;;;;;;;15.02;8.63;;;24.30;99.90;;;;;;5092120;28;20028;-62
2023/05/27 10:44:28;;;;;;;13.13;7.97;;;24.50;99.90;;;;;;5091618;28;20028;-62
2023/05/27 10:47:01;;;;;;;16.08;7.70;;;24.50;99.90;;;;;;5091201;28;20032;-62
2023/05/27 10:49:35;;;;;;;14.25;8.02;;;24.50;99.90;;;;;;5091683;28;20020;-62
2023/05/27 10:52:12;;;;;;;10.65;7.55;;;24.40;99.90;;;;;;5091439;28;20449;-62
2023/05/27 10:54:50;;;;;;;13.05;7.72;;;24.60;99.90;;;;;;5091575;28;20127;-62
2023/05/27 10:57:17;;;;;;;13.52;7.28;;;24.70;99.90;;;;;;5091700;28;20028;-62
2023/05/27 10:59:50;;;;;;;12.68;6.95;;;24.70;99.90;;;;;;5091112;28;20024;-63
2023/05/27 11:02:16;;;;;;;10.38;6.72;;;24.80;99.90;;;;;;5091440;28;20024;-63
2023/05/27 11:04:42;;;;;;;15.32;7.25;;;24.90;99.90;;;;;;5091444;28;20024;-62
2023/05/27 11:07:08;;;;;;;10.25;7.38;;;24.80;99.90;;;;;;5091368;28;20111;-62
2023/05/27 11:09:44;;;;;;;13.18;7.32;;;25.00;99.90;;;;;;5090933;28;20110;-62
2023/05/27 11:12:16;;;;;;;10.02;6.60;;;25.20;99.90;;;;;;5091103;28;20051;-62
2023/05/27 11:14:42;;;;;;;15.00;6.10;;;25.20;99.90;;;;;;5091387;28;20402;-62
2023/05/27 11:17:12;;;;;;;12.27;5.60;;;25.30;99.90;;;;;;5090879;28;20027;-62
2023/05/27 11:19:42;;;;;;;11.77;6.25;;;25.50;99.90;;;;;;5091179;28;20107;-62
2023/05/27 11:22:08;;;;;;;12.63;6.00;;;25.50;99.90;;;;;;5091215;28;20482;-62
2023/05/27 11:24:38;;;;;;;8.98;5.45;;;25.50;99.90;;;;;;5091682;28;20032;-61
2023/05/27 11:27:14;;;;;;;10.93;5.75;;;25.50;99.90;;;;;;5090923;28;20016;-62
2023/05/27 11:29:52;;;;;;;10.25;5.13;;;25.50;99.90;;;;;;5090795;28;20032;-62
2023/05/27 11:32:18;;;;;;;10.18;5.72;;;25.50;99.90;;;;;;5090944;28;20016;-62
2023/05/27 11:34:45;;;;;;;8.50;5.75;;;25.50;99.90;;;;;;5091068;28;20502;-62
2023/05/27 11:37:12;;;;;;;10.90;5.70;;;25.60;99.90;;;;;;5090960;28;20128;-62
2023/05/27 11:39:38;;;;;;;12.43;5.82;;;25.70;99.90;;;;;;5091462;28;20032;-62
2023/05/27 11:42:08;;;;;;;7.88;5.85;;;25.70;99.90;;;;;;5091132;28;20021;-63
2023/05/27 11:44:34;;;;;;;11.63;5.45;;;25.80;99.90;;;;;;5090710;28;20452;-62
2023/05/27 11:47:00;;;;;;;11.85;5.65;;;25.90;99.90;;;;;;5091183;28;20099;-62
2023/05/27 11:49:28;;;;;;;8.70;5.60;;;26.00;99.90;;;;;;5091344;28;20114;-62
2023/05/27 11:51:56;;;;;;;7.70;5.65;;;26.10;99.90;;;;;;5091026;28;20023;-63
2023/05/27 11:54:27;;;;;;;9.55;5.50;;;26.10;99.90;;;;;;5090795;28;20036;-62
2023/05/27 11:56:54;;;;;;;14.18;5.47;;;26.10;99.90;;;;;;5090621;28;20032;-62
2023/05/27 11:59:21;;;;;;;11.65;5.88;;;26.30;99.90;;;;;;5090914;28;20044;-62
2023/05/27 12:01:48;;;;;;;12.07;5.40;;;26.40;99.90;;;;;;5091199;28;20034;-62
2023/05/27 12:04:13;;;;;;;7.85;5.18;;;26.30;99.90;;;;;;5090752;28;20093;-62
2023/05/27 12:06:42;;;;;;;9.95;5.70;;;26.40;99.90;;;;;;5090848;28;20024;-62
2023/05/27 12:09:09;;;;;;;10.75;5.60;;;26.50;99.90;;;;;;5090902;28;20582;-63
2023/05/27 12:11:35;;;;;;;9.07;5.35;;;26.60;99.90;;;;;;5090744;28;20039;-62
2023/05/27 12:14:01;;;;;;;10.23;5.55;;;26.70;99.90;;;;;;5090330;28;20421;-62
2023/05/27 12:16:27;;;;;;;7.13;5.07;;;26.70;99.90;;;;;;5091118;28;20077;-62
2023/05/27 12:18:53;;;;;;;9.73;5.38;;;26.80;99.90;;;;;;5090576;28;20024;-62
2023/05/27 12:21:19;;;;;;;12.68;5.60;;;26.90;99.90;;;;;;5090928;28;20032;-62
2023/05/27 12:23:46;;;;;;;6.35;5.50;;;27.00;99.90;;;;;;5094249;28;20043;-62
2023/05/27 12:26:13;;;;;;;9.35;5.60;;;27.10;99.90;;;;;;5094116;28;20099;-62
2023/05/27 12:28:39;;;;;;;6.90;5.15;;;27.10;99.90;;;;;;5093971;28;20028;-62
2023/05/27 12:31:06;;;;;;;8.88;5.55;;;27.10;99.90;;;;;;5094002;28;20024;-62